ジャカルタ の空港の天気 - METARとTAF

スカルノハッタ国際空港 ( WIII / CGK ) - インドネシア バンテン州、Cengkareng ( ジャカルタ近郊)
飛行場実況気象(Metar)
観測時間09/23 17:30 WIB (09/23 10:30 UTC)
風向・風速不定 2m/s
視程10km以上
天気現象
少しの雲 雲底高度 670m
気温30℃
湿度66%
気圧1010hPa
METARWIII 231030Z VRB04KT 9999 FEW022 30/23 Q1010 NOSIG
過去の天気等 Google飛行場航空写真 Wunderground天気予報

過去48時間のMETAR

飛行場予報(TAF)
発表時間: 9/23 12:00 WIB (9/23 05:00 UTC)
予報対象時間: 23日13時 WIB ~ 24日19時 WIB
風向・風速北東 5m/s
視程9,000m
全天の4割程度の雲 雲底高度 640m
23日19時 WIB ~ 23日21時 WIB に徐々に
風向・風速南南西 2m/s
視程5,000m
天気現象煙霧
少しの雲 雲底高度 640m
TAF WIII 230500Z 2306/2412 04010KT 9000 SCT021
BECMG 2312/2314 21004KT 5000 HZ FEW021